Cielo Di Iyo — HOET — position and weather

sailwx.info

Track history (hours):
 
Tides and Currents Weather Stations Pressure Air Temp Water Temp Dewpoint Dewpoint Depression Visibility Wind Speed Wind Dir Waves Ship Positions

Cielo Di Iyo

Last reported at 2017-Aug-28 01:00 UTC. Time now 2017-Oct-17 09:58 UTC.
Position N 08°53' W 079°31'.
Warning: this ship's position is 50 days out of date.

Length 183 m; draft 10.6 m.

Type: Cargo ship. MMSI: 372771000.

Date/timePositionNaut miles runAvg speedWind from/ knotsBaromVisibWave heightAir tempDewpointWater temp
2017-Aug-28 01:00N 08°53' W 079°31'4 7.7
2017-Aug-28 00:28N 08°57' W 079°34'2 5.0
2017-Aug-27 23:58N 08°59' W 079°35'17 3.5
2017-Aug-27 19:14N 09°09' W 079°49'4 9.1
2017-Aug-27 18:50N 09°11' W 079°51'3 6.5
2017-Aug-27 18:24N 09°12' W 079°54'1 3.7
2017-Aug-27 18:00N 09°13' W 079°55'1 1.1
2017-Aug-27 17:30N 09°13' W 079°56'0 0.3
2017-Aug-27 16:58N 09°13' W 079°56'0 0.1
2017-Aug-27 16:30N 09°13' W 079°56'0 0.3
2017-Aug-27 16:00N 09°13' W 079°56'0 0.4
2017-Aug-27 15:30N 09°14' W 079°56'1 2.7
2017-Aug-27 15:00N 09°15' W 079°55'1 2.7
2017-Aug-27 14:30N 09°16' W 079°55'0 0.4
2017-Aug-27 14:00N 09°16' W 079°55'0 0.7
2017-Aug-27 13:30N 09°17' W 079°55'0 0.7
2017-Aug-27 13:00N 09°17' W 079°55'2 4.1
2017-Aug-27 12:30N 09°19' W 079°55'3 6.9
2017-Aug-27 12:00N 09°23' W 079°55'3 6.1
2017-Aug-27 11:30N 09°26' W 079°55'3 6.0
2017-Aug-27 11:00N 09°28' W 079°56'0 0.3
2017-Aug-27 10:29N 09°28' W 079°56'0 0.0
2017-Aug-27 09:59N 09°28' W 079°56'0 0.1
2017-Aug-27 09:29N 09°28' W 079°56'0 0.0
2017-Aug-27 08:59N 09°28' W 079°56'0 0.0
2017-Aug-27 08:26N 09°28' W 079°56'0 0.0
2017-Aug-27 07:59N 09°28' W 079°56'0 0.0
2017-Aug-27 07:29N 09°28' W 079°56'0 0.0
2017-Aug-27 06:59N 09°28' W 079°56'0 0.0
2017-Aug-27 06:26N 09°28' W 079°56'0 0.1
2017-Aug-27 05:56N 09°28' W 079°56'0 0.0
2017-Aug-27 05:29N 09°28' W 079°56'0 0.0
2017-Aug-27 04:59N 09°28' W 079°56'0 0.1
2017-Aug-27 04:29N 09°28' W 079°56'0 0.0
2017-Aug-27 03:59N 09°28' W 079°56'0 0.1
2017-Aug-27 03:29N 09°28' W 079°56'0 0.0
2017-Aug-27 02:59N 09°28' W 079°56'0 0.0
2017-Aug-27 02:26N 09°28' W 079°56'1 2.3
2017-Aug-27 02:00N 09°29' W 079°56'4 8.5
2017-Aug-27 01:30N 09°33' W 079°54'  
2017-Aug-22 01:07N 29°56' W 090°22'  
Track history (hours):
 
Tides and Currents Weather Stations Pressure Air Temp Water Temp Dewpoint Dewpoint Depression Visibility Wind Speed Wind Dir Waves Ship Positions

Cielo Di Iyo

Last reported at 2017-Aug-28 01:00 UTC. Time now 2017-Oct-17 09:58 UTC.
Position N 08°53' W 079°31'.
Warning: this ship's position is 50 days out of date.

Length 183 m; draft 10.6 m.

Type: Cargo ship. MMSI: 372771000.

Date/timePositionNaut miles runAvg speedWind from/ knotsBaromVisibWave heightAir tempDewpointWater temp
2017-Aug-28 01:00N 08°53' W 079°31'4 7.7
2017-Aug-28 00:28N 08°57' W 079°34'2 5.0
2017-Aug-27 23:58N 08°59' W 079°35'17 3.5
2017-Aug-27 19:14N 09°09' W 079°49'4 9.1
2017-Aug-27 18:50N 09°11' W 079°51'3 6.5
2017-Aug-27 18:24N 09°12' W 079°54'1 3.7
2017-Aug-27 18:00N 09°13' W 079°55'1 1.1
2017-Aug-27 17:30N 09°13' W 079°56'0 0.3
2017-Aug-27 16:58N 09°13' W 079°56'0 0.1
2017-Aug-27 16:30N 09°13' W 079°56'0 0.3
2017-Aug-27 16:00N 09°13' W 079°56'0 0.4
2017-Aug-27 15:30N 09°14' W 079°56'1 2.7
2017-Aug-27 15:00N 09°15' W 079°55'1 2.7
2017-Aug-27 14:30N 09°16' W 079°55'0 0.4
2017-Aug-27 14:00N 09°16' W 079°55'0 0.7
2017-Aug-27 13:30N 09°17' W 079°55'0 0.7
2017-Aug-27 13:00N 09°17' W 079°55'2 4.1
2017-Aug-27 12:30N 09°19' W 079°55'3 6.9
2017-Aug-27 12:00N 09°23' W 079°55'3 6.1
2017-Aug-27 11:30N 09°26' W 079°55'3 6.0
2017-Aug-27 11:00N 09°28' W 079°56'0 0.3
2017-Aug-27 10:29N 09°28' W 079°56'0 0.0
2017-Aug-27 09:59N 09°28' W 079°56'0 0.1
2017-Aug-27 09:29N 09°28' W 079°56'0 0.0
2017-Aug-27 08:59N 09°28' W 079°56'0 0.0
2017-Aug-27 08:26N 09°28' W 079°56'0 0.0
2017-Aug-27 07:59N 09°28' W 079°56'0 0.0
2017-Aug-27 07:29N 09°28' W 079°56'0 0.0
2017-Aug-27 06:59N 09°28' W 079°56'0 0.0
2017-Aug-27 06:26N 09°28' W 079°56'0 0.1
2017-Aug-27 05:56N 09°28' W 079°56'0 0.0
2017-Aug-27 05:29N 09°28' W 079°56'0 0.0
2017-Aug-27 04:59N 09°28' W 079°56'0 0.1
2017-Aug-27 04:29N 09°28' W 079°56'0 0.0
2017-Aug-27 03:59N 09°28' W 079°56'0 0.1
2017-Aug-27 03:29N 09°28' W 079°56'0 0.0
2017-Aug-27 02:59N 09°28' W 079°56'0 0.0
2017-Aug-27 02:26N 09°28' W 079°56'1 2.3
2017-Aug-27 02:00N 09°29' W 079°56'4 8.5
2017-Aug-27 01:30N 09°33' W 079°54'  
2017-Aug-22 01:07N 29°56' W 090°22'  

Dump ship's entire track history